Pagrindinis puslapis
METAR-TAF:

METAR-TAF

Oro uostai :

Ljungbyhed, Švedija

platuma: 56-04N, ilguma: 013-12E, Aukštis: 43 m

Dabartinis oras

Ataskaita buvo paskelbta 28 minutes, ne 09:20 UTC
Vėjas 3 kt iš Rytų/Pietryčių
Temperatūra 0°C
Drėgmė 100%
Slėgis 1010 hPa
Matomumas: 0600 m
sniegas

METAR: ESTL 100920Z AUTO 12003KT 0600 R29L/1200D SN FEW008/// M00/M00 Q1010

Laikas: 10:48 (09:48 UTC)

Prognozė

Ataskaita buvo paskelbta 22 valandos ir 38 minutes, ne 11:10 UTC
Prognozė galioja nuo 09 metu 12 UTC su 09 metu 16 UTC
Vėjas 5 kt iš Pietų/Pietryčių
Matomumas 10 km arba daugiau
Išsisklaidę debesys ne aukštis 1000 ft
Su prošvaistėmis ne aukštis 1500 ft
Laikinai
nuo 09 metu 12 UTC su 09 metu 16 UTC
Matomumas: 4000 m
Su prošvaistėmis ne aukštis 1000 ft
sniegas

TAF: ESTL 091110Z 0912/0916 15005KT 9999 SCT010 BKN015 TEMPO 0912/0916 4000 -SN BKN010

Orai ataskaitas ir orų prognozės (METAR, TAF).

turimą stotys yra geltonos ir raudonos taškus žemėlapyje.

Perkelti pele per norėdami pamatyti stoties vardą.

Tada spustelėkite, norėdami matyti oro stebėjimo ir prognozės.

Norėdami pakeisti žemėlapį: spustelėkite ant žalios mygtukų su juodo kryžiaus žemyn,; žalią mygtuką su brūkšneliu, jei norite nutolinti; arba žalių rodyklių gretimoms žemėlapius.


METAR-TAF: